Time;durP1;ratioP1;P1;durP2;ratioP2;P2;SDS_P1;SDS_P2;PMS_P1;PMS_P2;Temp;Humidity;BMP_temperature;BMP_pressure;BME280_temperature;BME280_humidity;BME280_pressure;Samples;Min_cycle;Max_cycle;Signal;HPM_P1;HPM_P2
2023/08/03 00:01:08;;;;;;;1.93;1.40;;;25.30;70.90;;;;;;5049070;28;20487;-84
2023/08/03 00:03:37;;;;;;;1.40;1.23;;;25.30;70.90;;;;;;5044808;28;20493;-84
2023/08/03 00:06:05;;;;;;;1.70;1.30;;;25.30;70.90;;;;;;5052155;28;20466;-85
2023/08/03 00:08:33;;;;;;;2.83;1.30;;;25.30;70.90;;;;;;5053682;28;20555;-85
2023/08/03 00:11:01;;;;;;;2.00;1.47;;;25.20;70.90;;;;;;5046410;28;20476;-85
2023/08/03 00:13:31;;;;;;;1.70;1.30;;;25.30;70.80;;;;;;5046386;28;20465;-84
2023/08/03 00:15:59;;;;;;;1.17;1.10;;;25.20;70.80;;;;;;5050665;28;20451;-84
2023/08/03 00:18:28;;;;;;;1.20;1.10;;;25.20;70.70;;;;;;5059139;28;20506;-84
2023/08/03 00:20:56;;;;;;;1.70;1.60;;;25.20;70.70;;;;;;5051673;28;20461;-84
2023/08/03 00:23:24;;;;;;;1.90;1.60;;;25.20;70.70;;;;;;5046179;28;21037;-86
2023/08/03 00:25:52;;;;;;;1.80;1.50;;;25.20;70.60;;;;;;5057676;28;20475;-84
2023/08/03 00:28:22;;;;;;;1.10;1.10;;;25.20;70.60;;;;;;5053175;28;20453;-84
2023/08/03 00:30:52;;;;;;;1.57;1.20;;;25.20;70.60;;;;;;5052535;28;20480;-84
2023/08/03 00:33:20;;;;;;;3.07;1.30;;;25.20;70.60;;;;;;5061769;28;20466;-84
2023/08/03 00:35:48;;;;;;;1.00;1.00;;;25.20;70.40;;;;;;5055050;28;20926;-85
2023/08/03 00:38:16;;;;;;;1.50;1.30;;;25.20;70.60;;;;;;5060302;28;20488;-84
2023/08/03 00:40:45;;;;;;;2.33;1.50;;;25.20;70.60;;;;;;5064877;28;20500;-87
2023/08/03 00:43:13;;;;;;;1.87;1.50;;;25.20;70.60;;;;;;5060576;28;20526;-85
2023/08/03 00:45:41;;;;;;;1.60;1.47;;;25.20;70.40;;;;;;5055003;28;20456;-84
2023/08/03 00:48:11;;;;;;;1.90;1.33;;;25.20;70.40;;;;;;5051101;28;20466;-84
2023/08/03 00:50:40;;;;;;;1.50;1.30;;;25.20;70.60;;;;;;5062770;28;20521;-84
2023/08/03 00:53:08;;;;;;;1.43;1.33;;;25.20;70.60;;;;;;5070899;28;21037;-84
2023/08/03 00:55:37;;;;;;;1.30;1.20;;;25.20;70.40;;;;;;5058760;28;20519;-84
2023/08/03 00:58:06;;;;;;;2.60;1.53;;;25.20;70.40;;;;;;5067818;28;20592;-85
2023/08/03 01:00:35;;;;;;;0.90;0.90;;;25.10;70.40;;;;;;5049948;28;20447;-85
2023/08/03 01:03:03;;;;;;;1.93;1.30;;;25.10;70.40;;;;;;5049722;28;20448;-84
2023/08/03 01:05:33;;;;;;;1.43;1.20;;;25.10;70.40;;;;;;5052777;28;20468;-85
2023/08/03 01:08:02;;;;;;;1.30;1.20;;;25.10;70.40;;;;;;5051683;28;20963;-84
2023/08/03 01:10:30;;;;;;;2.63;1.20;;;25.10;70.40;;;;;;5052862;28;20486;-84
2023/08/03 01:12:59;;;;;;;1.93;1.50;;;25.20;70.40;;;;;;5055880;28;20864;-84
2023/08/03 01:15:28;;;;;;;1.27;1.13;;;25.20;70.40;;;;;;5058397;28;20456;-84
2023/08/03 01:17:56;;;;;;;1.20;1.10;;;25.10;70.40;;;;;;5055510;28;20447;-84
2023/08/03 01:20:25;;;;;;;1.50;1.37;;;25.10;70.40;;;;;;5048501;28;20450;-84
2023/08/03 01:22:55;;;;;;;1.93;1.37;;;25.10;70.40;;;;;;5046780;28;20454;-84
2023/08/03 01:25:23;;;;;;;1.57;1.00;;;25.10;70.40;;;;;;5050654;28;20455;-85
2023/08/03 01:27:52;;;;;;;1.20;1.00;;;25.10;70.40;;;;;;5057296;28;20461;-85
2023/08/03 01:30:20;;;;;;;1.23;1.13;;;25.10;70.40;;;;;;5047584;28;20895;-84
2023/08/03 01:32:48;;;;;;;1.40;1.30;;;25.10;70.40;;;;;;5052441;28;20456;-84
2023/08/03 01:35:17;;;;;;;0.90;0.90;;;25.10;70.40;;;;;;5046759;28;20955;-84
2023/08/03 01:37:45;;;;;;;1.47;1.30;;;25.10;70.30;;;;;;5052084;28;20465;-85
2023/08/03 01:40:17;;;;;;;1.53;1.20;;;25.10;70.30;;;;;;5052951;28;20460;-84
2023/08/03 01:42:46;;;;;;;1.53;1.43;;;25.10;70.30;;;;;;5049952;28;20860;-84
2023/08/03 01:45:14;;;;;;;1.97;1.60;;;25.10;70.30;;;;;;5047875;28;20455;-84
2023/08/03 01:47:42;;;;;;;2.20;1.73;;;25.10;70.30;;;;;;5050988;28;20455;-84
2023/08/03 01:50:11;;;;;;;1.30;1.20;;;25.10;70.30;;;;;;5057990;28;20816;-85
2023/08/03 01:52:39;;;;;;;1.83;1.30;;;25.10;70.30;;;;;;5049384;28;20814;-84
2023/08/03 01:55:08;;;;;;;2.17;1.50;;;25.00;70.30;;;;;;5049644;28;20520;-84
2023/08/03 01:57:37;;;;;;;1.40;1.30;;;25.10;70.30;;;;;;5049271;28;20455;-84
2023/08/03 02:00:07;;;;;;;2.83;1.20;;;25.10;70.30;;;;;;5047079;28;20470;-84
2023/08/03 02:02:41;;;;;;;2.60;1.27;;;25.00;70.30;;;;;;5042881;28;20476;-84
2023/08/03 02:05:11;;;;;;;1.40;1.23;;;25.00;70.30;;;;;;5051889;28;20509;-84
2023/08/03 02:07:44;;;;;;;1.57;1.47;;;25.00;70.30;;;;;;5061682;28;20480;-84
2023/08/03 02:10:13;;;;;;;1.40;1.30;;;25.00;70.20;;;;;;5065628;28;20465;-88
2023/08/03 02:12:42;;;;;;;1.40;1.30;;;25.00;70.20;;;;;;5042580;28;20535;-85
2023/08/03 02:15:12;;;;;;;2.40;1.50;;;25.00;70.20;;;;;;5052717;28;20609;-85
2023/08/03 02:17:41;;;;;;;1.83;1.30;;;25.00;70.20;;;;;;5050020;28;20449;-85
2023/08/03 02:20:10;;;;;;;1.23;1.07;;;25.00;70.10;;;;;;5049684;28;20543;-84
2023/08/03 02:22:38;;;;;;;1.70;1.40;;;25.00;70.10;;;;;;5042340;28;20526;-85
2023/08/03 02:25:07;;;;;;;2.00;1.30;;;25.00;69.90;;;;;;5044650;28;20454;-84
2023/08/03 02:27:35;;;;;;;1.47;1.37;;;25.00;69.90;;;;;;5053695;28;20979;-85
2023/08/03 02:30:06;;;;;;;6.50;1.40;;;25.00;69.90;;;;;;5046033;28;20457;-85
2023/08/03 02:32:38;;;;;;;1.20;1.17;;;25.00;69.90;;;;;;5063342;28;20875;-84
2023/08/03 02:35:08;;;;;;;3.97;1.50;;;25.00;69.80;;;;;;5048122;28;20481;-84
2023/08/03 02:37:37;;;;;;;1.33;1.23;;;25.00;69.80;;;;;;5049158;28;20821;-84
2023/08/03 02:40:13;;;;;;;1.40;1.30;;;25.00;69.80;;;;;;5048622;28;20490;-84
2023/08/03 02:42:42;;;;;;;1.23;1.10;;;25.00;69.70;;;;;;5053752;28;20551;-84
2023/08/03 02:45:12;;;;;;;1.20;1.10;;;25.00;69.70;;;;;;5048713;28;20450;-84
2023/08/03 02:47:41;;;;;;;1.40;1.30;;;25.00;69.70;;;;;;5050291;28;20475;-84
2023/08/03 02:50:10;;;;;;;1.73;1.40;;;25.00;69.80;;;;;;5048350;28;20501;-85
2023/08/03 02:52:39;;;;;;;1.60;1.40;;;25.00;69.80;;;;;;5059299;28;20471;-86
2023/08/03 02:55:08;;;;;;;1.83;1.37;;;25.00;69.70;;;;;;5066053;28;20550;-84
2023/08/03 02:57:38;;;;;;;1.10;0.97;;;25.00;69.70;;;;;;5053778;28;20470;-85
2023/08/03 03:00:12;;;;;;;1.57;1.47;;;25.00;69.60;;;;;;5056754;28;20459;-84
2023/08/03 03:02:42;;;;;;;3.23;1.23;;;25.00;69.60;;;;;;5057475;28;20558;-84
2023/08/03 03:05:15;;;;;;;1.37;1.27;;;24.90;69.60;;;;;;5061038;28;20498;-84
2023/08/03 03:07:47;;;;;;;1.13;1.00;;;24.90;69.60;;;;;;5057409;28;20959;-84
2023/08/03 03:10:15;;;;;;;1.60;1.33;;;24.90;69.60;;;;;;5054591;28;20491;-84
2023/08/03 03:12:44;;;;;;;1.07;0.97;;;24.90;69.50;;;;;;5056409;28;20482;-85
2023/08/03 03:15:14;;;;;;;2.47;1.37;;;24.90;69.50;;;;;;5055111;28;20460;-84
2023/08/03 03:17:43;;;;;;;0.90;0.90;;;24.90;69.40;;;;;;5052208;28;21045;-84
2023/08/03 03:20:12;;;;;;;1.43;1.20;;;24.90;69.50;;;;;;5066808;28;20495;-84
2023/08/03 03:22:42;;;;;;;1.30;1.20;;;24.90;69.50;;;;;;5058439;28;20471;-84
2023/08/03 03:25:10;;;;;;;1.47;1.13;;;24.90;69.40;;;;;;5052530;28;20456;-84
2023/08/03 03:27:39;;;;;;;1.37;1.27;;;24.90;69.40;;;;;;5059090;28;20961;-84
2023/08/03 03:30:09;;;;;;;1.30;1.20;;;24.90;69.40;;;;;;5061737;28;20454;-84
2023/08/03 03:32:40;;;;;;;1.67;1.40;;;24.90;69.40;;;;;;5056552;28;20478;-85
2023/08/03 03:35:08;;;;;;;3.90;1.03;;;24.90;69.40;;;;;;5058583;28;20467;-85
2023/08/03 03:37:37;;;;;;;1.23;1.13;;;24.90;69.30;;;;;;5056876;28;20456;-84
2023/08/03 03:40:07;;;;;;;1.77;1.67;;;24.90;69.20;;;;;;5049698;28;20478;-84
2023/08/03 03:42:41;;;;;;;1.43;1.33;;;24.80;69.30;;;;;;5053966;28;20469;-84
2023/08/03 03:45:11;;;;;;;1.20;1.10;;;24.80;69.30;;;;;;5057985;28;20529;-88
2023/08/03 03:47:41;;;;;;;3.33;1.40;;;24.80;69.30;;;;;;5055121;28;20471;-84
2023/08/03 03:50:11;;;;;;;1.13;1.00;;;24.80;69.30;;;;;;5062055;28;20447;-84
2023/08/03 03:52:39;;;;;;;2.63;1.40;;;24.80;69.10;;;;;;5059256;28;20471;-84
2023/08/03 03:55:09;;;;;;;1.20;1.10;;;24.80;69.20;;;;;;5052589;28;20466;-84
2023/08/03 03:57:39;;;;;;;2.30;1.17;;;24.80;69.20;;;;;;5058698;28;20469;-84
2023/08/03 04:00:08;;;;;;;1.60;1.50;;;24.80;69.10;;;;;;5055437;28;20455;-84
2023/08/03 04:02:42;;;;;;;2.40;1.10;;;24.80;69.20;;;;;;5051929;28;20487;-84
2023/08/03 04:05:17;;;;;;;3.20;1.40;;;24.80;69.00;;;;;;5049742;28;20452;-84
2023/08/03 04:07:45;;;;;;;1.50;1.30;;;24.80;69.00;;;;;;5053633;28;20448;-87
2023/08/03 04:10:14;;;;;;;1.30;0.93;;;24.80;69.00;;;;;;5056163;28;20489;-84
2023/08/03 04:12:42;;;;;;;3.77;1.63;;;24.80;69.00;;;;;;5048916;28;20471;-84
2023/08/03 04:15:10;;;;;;;1.57;1.13;;;24.80;69.00;;;;;;5053841;28;20529;-87
2023/08/03 04:17:39;;;;;;;1.73;1.07;;;24.80;69.00;;;;;;5054338;28;20594;-84
2023/08/03 04:20:13;;;;;;;2.50;1.30;;;24.80;69.00;;;;;;5051791;28;20461;-84
2023/08/03 04:22:42;;;;;;;1.53;1.43;;;24.80;69.00;;;;;;5055684;28;20444;-87
2023/08/03 04:25:15;;;;;;;2.57;1.80;;;24.80;68.90;;;;;;5054511;28;20458;-84
2023/08/03 04:27:48;;;;;;;0.97;0.90;;;24.80;68.90;;;;;;5049355;28;20520;-84
2023/08/03 04:30:22;;;;;;;0.97;0.80;;;24.80;68.90;;;;;;5052120;28;20557;-85
2023/08/03 04:32:50;;;;;;;1.40;1.30;;;24.80;68.90;;;;;;5057601;28;20525;-85
2023/08/03 04:35:21;;;;;;;1.73;0.80;;;24.80;68.80;;;;;;5059266;28;20463;-85
2023/08/03 04:37:53;;;;;;;1.47;1.37;;;24.80;68.90;;;;;;5053182;28;20463;-84
2023/08/03 04:40:23;;;;;;;1.67;0.90;;;24.70;68.80;;;;;;5051959;28;20468;-85
2023/08/03 04:42:51;;;;;;;1.37;1.00;;;24.80;68.70;;;;;;5065668;28;20461;-84
2023/08/03 04:45:19;;;;;;;1.97;1.30;;;24.80;68.70;;;;;;5058405;28;20492;-84
2023/08/03 04:47:48;;;;;;;2.67;1.17;;;24.80;68.70;;;;;;5049513;28;20452;-85
2023/08/03 04:50:19;;;;;;;1.37;1.27;;;24.80;68.70;;;;;;5053454;28;20546;-86
2023/08/03 04:52:49;;;;;;;1.50;1.40;;;24.80;68.70;;;;;;5053607;28;20507;-84
2023/08/03 04:55:20;;;;;;;1.50;1.20;;;24.80;68.60;;;;;;5055005;28;20482;-84
2023/08/03 04:57:48;;;;;;;1.50;1.33;;;24.80;68.60;;;;;;5060317;28;20878;-84
2023/08/03 05:00:19;;;;;;;1.10;1.00;;;24.80;68.60;;;;;;5049356;28;20469;-83
2023/08/03 05:02:50;;;;;;;1.40;1.20;;;24.80;68.60;;;;;;5042473;28;20466;-84
2023/08/03 05:05:18;;;;;;;0.90;0.90;;;24.80;68.60;;;;;;5050446;28;20459;-84
2023/08/03 05:07:49;;;;;;;1.90;0.90;;;24.80;68.60;;;;;;5052222;28;20507;-84
2023/08/03 05:10:22;;;;;;;1.67;1.10;;;24.80;68.50;;;;;;5053229;28;20448;-84
2023/08/03 05:12:50;;;;;;;2.83;1.37;;;24.80;68.60;;;;;;5049761;28;20566;-84
2023/08/03 05:15:19;;;;;;;2.33;1.20;;;24.80;68.50;;;;;;5050495;28;20519;-89
2023/08/03 05:17:49;;;;;;;2.30;1.10;;;24.80;68.40;;;;;;5046415;28;20456;-86
2023/08/03 05:20:17;;;;;;;3.07;1.63;;;24.80;68.30;;;;;;5042932;28;20458;-84
2023/08/03 05:22:46;;;;;;;1.27;1.10;;;24.80;68.40;;;;;;5045357;28;20464;-86
2023/08/03 05:25:15;;;;;;;4.27;1.40;;;24.80;68.40;;;;;;5049406;28;20504;-84
2023/08/03 05:27:43;;;;;;;1.20;1.10;;;24.80;68.40;;;;;;5060919;28;20505;-85
2023/08/03 05:30:12;;;;;;;2.40;1.20;;;24.80;68.30;;;;;;5057672;28;20438;-83
2023/08/03 05:32:40;;;;;;;1.27;1.00;;;24.80;68.30;;;;;;5048274;28;20482;-83
2023/08/03 05:35:08;;;;;;;2.17;1.23;;;24.80;68.30;;;;;;5043195;28;21119;-88
2023/08/03 05:37:37;;;;;;;1.23;1.13;;;24.80;68.30;;;;;;5044593;28;20460;-86
2023/08/03 05:40:06;;;;;;;1.43;1.00;;;24.80;68.30;;;;;;5044439;28;20538;-83
2023/08/03 05:42:38;;;;;;;3.63;1.00;;;24.80;68.30;;;;;;5049370;28;20478;-83
2023/08/03 05:45:11;;;;;;;1.47;1.10;;;24.80;68.20;;;;;;5050587;28;20955;-87
2023/08/03 05:47:40;;;;;;;5.30;1.53;;;24.80;68.20;;;;;;5043079;28;20452;-83
2023/08/03 05:50:14;;;;;;;2.53;1.30;;;24.80;68.30;;;;;;5041893;28;20470;-84
2023/08/03 05:52:43;;;;;;;1.83;0.97;;;24.90;68.30;;;;;;5044505;28;20472;-83
2023/08/03 05:55:12;;;;;;;1.77;1.27;;;24.90;68.30;;;;;;5045070;28;20541;-83
2023/08/03 05:57:41;;;;;;;2.23;1.20;;;24.90;68.30;;;;;;5044538;28;20472;-83
2023/08/03 06:00:16;;;;;;;1.70;0.87;;;24.90;68.40;;;;;;5056026;28;20451;-83
2023/08/03 06:02:45;;;;;;;1.17;1.07;;;24.90;68.40;;;;;;5047979;28;20518;-83
2023/08/03 06:05:41;;;;;;;0.93;0.87;;;24.90;68.40;;;;;;5044757;28;20454;-83
2023/08/03 06:08:17;;;;;;;1.83;1.10;;;24.90;68.40;;;;;;5051963;28;20453;-83
2023/08/03 06:10:46;;;;;;;3.50;1.50;;;24.90;68.40;;;;;;5048725;28;20447;-84
2023/08/03 06:13:18;;;;;;;3.27;1.50;;;24.90;68.40;;;;;;5056017;28;20484;-84
2023/08/03 06:15:48;;;;;;;1.87;1.17;;;24.90;68.40;;;;;;5051849;28;20853;-83
2023/08/03 06:18:18;;;;;;;2.93;0.97;;;24.90;68.40;;;;;;5071170;28;20477;-84
2023/08/03 06:20:48;;;;;;;1.13;1.00;;;24.90;68.40;;;;;;5056846;28;20471;-89
2023/08/03 06:23:18;;;;;;;3.83;1.30;;;24.90;68.40;;;;;;5063717;28;20470;-83
2023/08/03 06:25:47;;;;;;;1.67;0.90;;;24.90;68.40;;;;;;5065376;28;20447;-83
2023/08/03 06:28:18;;;;;;;7.70;1.97;;;24.90;68.50;;;;;;5057861;28;20516;-84
2023/08/03 06:30:47;;;;;;;1.93;1.30;;;24.90;68.40;;;;;;5055452;28;20456;-83
2023/08/03 06:33:18;;;;;;;1.47;1.30;;;25.00;68.40;;;;;;5062336;28;20500;-84
2023/08/03 06:35:47;;;;;;;2.00;1.30;;;25.00;68.40;;;;;;5064319;28;20448;-85
2023/08/03 06:38:17;;;;;;;1.33;1.10;;;25.00;68.40;;;;;;5067797;28;20533;-83
2023/08/03 06:40:47;;;;;;;1.30;1.10;;;25.00;68.40;;;;;;5054760;28;20509;-83
2023/08/03 06:43:17;;;;;;;1.27;1.00;;;25.00;68.40;;;;;;5052548;28;20967;-84
2023/08/03 06:45:46;;;;;;;2.50;1.67;;;25.00;68.40;;;;;;5046081;28;20530;-84
2023/08/03 06:48:14;;;;;;;2.17;1.23;;;25.00;68.40;;;;;;5049065;28;20449;-83
2023/08/03 06:50:44;;;;;;;3.33;1.17;;;25.00;68.40;;;;;;5044212;28;20492;-83
2023/08/03 06:53:13;;;;;;;1.40;1.27;;;25.00;68.50;;;;;;5047222;28;20456;-83
2023/08/03 06:55:44;;;;;;;1.43;1.07;;;25.00;68.50;;;;;;5052581;28;20872;-83
2023/08/03 06:58:12;;;;;;;2.00;0.97;;;25.00;68.50;;;;;;5048170;28;20502;-83
2023/08/03 07:00:42;;;;;;;1.63;1.10;;;25.00;68.50;;;;;;5039989;28;20492;-84
2023/08/03 07:03:11;;;;;;;1.87;1.07;;;25.00;68.50;;;;;;5043237;28;20468;-84
2023/08/03 07:05:40;;;;;;;3.27;1.60;;;25.00;68.50;;;;;;5046731;28;20925;-83
2023/08/03 07:08:09;;;;;;;1.13;1.03;;;25.00;68.40;;;;;;5046075;28;20453;-84
2023/08/03 07:10:37;;;;;;;1.37;1.13;;;25.00;68.40;;;;;;5046923;28;20456;-84
2023/08/03 07:13:06;;;;;;;2.83;1.23;;;25.00;68.60;;;;;;5045941;28;21035;-83
2023/08/03 07:15:34;;;;;;;1.00;0.90;;;25.10;68.50;;;;;;5056870;28;20440;-83
2023/08/03 07:18:05;;;;;;;3.50;1.23;;;25.10;68.50;;;;;;5051982;28;20473;-84
2023/08/03 07:20:35;;;;;;;2.90;1.00;;;25.10;68.50;;;;;;5048338;28;20467;-84
2023/08/03 07:23:05;;;;;;;2.60;1.37;;;25.10;68.50;;;;;;5050690;28;20464;-83
2023/08/03 07:25:34;;;;;;;2.70;1.57;;;25.10;68.40;;;;;;5054739;28;20452;-83
2023/08/03 07:28:02;;;;;;;1.90;1.20;;;25.10;68.40;;;;;;5053844;28;20454;-83
2023/08/03 07:30:30;;;;;;;1.37;1.10;;;25.10;68.40;;;;;;5057075;28;20444;-86
2023/08/03 07:33:00;;;;;;;2.40;1.13;;;25.10;68.40;;;;;;5053093;28;20532;-83
2023/08/03 07:35:30;;;;;;;2.97;1.60;;;25.10;68.30;;;;;;5047589;28;20472;-85
2023/08/03 07:37:58;;;;;;;5.07;1.87;;;25.20;68.40;;;;;;5048119;28;20437;-83
2023/08/03 07:40:26;;;;;;;5.32;2.10;;;25.20;68.50;;;;;;5059196;28;20443;-81
2023/08/03 07:42:54;;;;;;;2.93;1.90;;;25.10;68.90;;;;;;5048591;28;20269;-88
2023/08/03 07:45:23;;;;;;;5.33;2.43;;;25.20;68.90;;;;;;5067672;28;20619;-85
2023/08/03 07:47:54;;;;;;;8.00;3.23;;;25.20;68.90;;;;;;5048176;28;20457;-83
2023/08/03 07:50:22;;;;;;;4.53;2.37;;;25.10;69.00;;;;;;5044422;28;21092;-84
2023/08/03 07:52:51;;;;;;;6.32;2.40;;;25.20;69.00;;;;;;5049108;28;20466;-88
2023/08/03 07:55:20;;;;;;;5.40;3.47;;;25.20;69.10;;;;;;5047303;28;20231;-88
2023/08/03 07:57:48;;;;;;;366.80;174.37;;;25.20;69.20;;;;;;5049678;28;20764;-85
2023/08/03 08:00:17;;;;;;;68.33;34.20;;;25.30;69.30;;;;;;5064432;28;20448;-85
2023/08/03 08:02:45;;;;;;;60.67;30.27;;;25.30;69.20;;;;;;5065943;28;20449;-85
2023/08/03 08:05:13;;;;;;;48.20;24.63;;;25.30;69.20;;;;;;5060579;28;20506;-86
2023/08/03 08:07:41;;;;;;;48.83;24.43;;;25.30;69.10;;;;;;5051905;28;20449;-89
2023/08/03 08:10:12;;;;;;;243.73;128.57;;;25.30;69.20;;;;;;5066968;28;21066;-86
2023/08/03 08:12:40;;;;;;;80.43;41.47;;;25.30;69.10;;;;;;5058604;28;20547;-84
2023/08/03 08:15:09;;;;;;;64.07;29.90;;;25.40;69.00;;;;;;5051196;28;20474;-89
2023/08/03 08:17:37;;;;;;;52.63;29.00;;;25.40;68.80;;;;;;5055414;28;20462;-87
2023/08/03 08:20:06;;;;;;;50.40;27.87;;;25.40;68.70;;;;;;5046030;28;20489;-86
2023/08/03 08:22:34;;;;;;;55.63;23.90;;;25.40;68.80;;;;;;5050195;28;20502;-86
2023/08/03 08:25:03;;;;;;;37.87;21.33;;;25.40;68.60;;;;;;5049731;28;20493;-86
2023/08/03 08:27:33;;;;;;;13.87;7.50;;;25.40;68.60;;;;;;5051240;28;20956;-86
2023/08/03 08:30:01;;;;;;;8.37;3.63;;;25.20;61.70;;;;;;5050849;28;20526;-87
2023/08/03 08:32:29;;;;;;;9.97;3.57;;;24.60;59.20;;;;;;5048580;28;20465;-86
2023/08/03 08:34:57;;;;;;;4.40;2.20;;;24.20;61.00;;;;;;5045453;28;20468;-86
2023/08/03 08:37:29;;;;;;;3.23;1.30;;;24.00;60.70;;;;;;5048959;28;20480;-87
2023/08/03 08:39:57;;;;;;;0.90;0.77;;;23.70;60.20;;;;;;5065292;28;20563;-87
2023/08/03 08:42:28;;;;;;;2.17;1.30;;;23.50;60.30;;;;;;5049195;28;20486;-87
2023/08/03 08:44:58;;;;;;;1.17;0.90;;;23.50;60.70;;;;;;5049244;28;20497;-88
2023/08/03 08:47:26;;;;;;;1.63;0.90;;;23.40;60.30;;;;;;5047678;28;20471;-86
2023/08/03 08:49:55;;;;;;;1.97;0.60;;;23.40;60.60;;;;;;5058937;28;20602;-85
2023/08/03 08:52:27;;;;;;;1.00;0.80;;;23.30;60.30;;;;;;5046131;28;21232;-85
2023/08/03 08:55:10;;;;;;;0.63;0.50;;;23.30;59.20;;;;;;5047406;28;20693;-84
2023/08/03 08:57:42;;;;;;;0.80;0.67;;;23.20;59.10;;;;;;5048061;28;20458;-83
2023/08/03 09:00:15;;;;;;;0.60;0.47;;;23.30;60.40;;;;;;5047368;28;20492;-85
2023/08/03 09:02:44;;;;;;;1.17;0.60;;;23.30;60.20;;;;;;5042115;28;20478;-90
2023/08/03 09:05:14;;;;;;;3.50;0.67;;;23.30;59.20;;;;;;5065106;28;20315;-88
2023/08/03 09:07:43;;;;;;;0.77;0.57;;;23.30;58.50;;;;;;5045359;28;20544;-86
2023/08/03 09:10:12;;;;;;;1.13;0.57;;;23.20;59.00;;;;;;5048906;28;20460;-88
2023/08/03 09:12:42;;;;;;;1.60;0.80;;;23.20;58.60;;;;;;5050801;28;20453;-89
2023/08/03 09:15:10;;;;;;;5.80;2.67;;;23.20;58.70;;;;;;5043544;28;20503;-87
2023/08/03 09:17:42;;;;;;;2.60;1.70;;;23.20;58.80;;;;;;5045283;28;20476;-85
2023/08/03 09:20:25;;;;;;;5.97;2.77;;;23.20;58.80;;;;;;5050963;28;20554;-87
2023/08/03 09:22:56;;;;;;;4.83;2.00;;;23.20;58.50;;;;;;5064414;28;20800;-88
2023/08/03 09:25:27;;;;;;;5.80;3.30;;;23.20;59.10;;;;;;5048753;28;20463;-85
2023/08/03 09:28:08;;;;;;;6.63;3.13;;;23.40;59.80;;;;;;5050682;28;20469;-84
2023/08/03 09:30:49;;;;;;;4.80;2.93;;;23.40;59.10;;;;;;5050595;28;20514;-84
2023/08/03 09:33:22;;;;;;;4.47;2.00;;;23.40;58.40;;;;;;5049195;28;20875;-87
2023/08/03 09:36:04;;;;;;;3.63;2.37;;;23.30;59.10;;;;;;5052561;28;20488;-87
2023/08/03 09:38:32;;;;;;;4.40;2.47;;;23.40;58.80;;;;;;5047552;28;21001;-88
2023/08/03 09:41:00;;;;;;;7.77;3.60;;;23.40;58.90;;;;;;5052689;28;20455;-87
2023/08/03 09:43:29;;;;;;;7.60;2.87;;;23.40;58.40;;;;;;5047654;28;20457;-85
2023/08/03 09:46:00;;;;;;;3.20;1.90;;;23.30;58.70;;;;;;5049335;28;21080;-90
2023/08/03 09:48:30;;;;;;;4.50;2.80;;;23.20;59.30;;;;;;5051271;28;20491;-88
2023/08/03 09:51:00;;;;;;;2.53;2.03;;;23.10;60.00;;;;;;5047041;28;20474;-87
2023/08/03 09:53:31;;;;;;;4.57;2.43;;;23.20;59.80;;;;;;5052927;28;20516;-85
2023/08/03 09:56:03;;;;;;;3.63;1.50;;;23.20;59.70;;;;;;5048342;28;20476;-87
2023/08/03 09:58:43;;;;;;;7.57;4.53;;;23.20;59.70;;;;;;5052795;28;20808;-85
2023/08/03 10:01:14;;;;;;;18.87;12.13;;;23.20;59.30;;;;;;5051404;28;20448;-90
2023/08/03 10:03:47;;;;;;;15.47;8.77;;;23.20;59.30;;;;;;5048182;28;20455;-90
2023/08/03 10:06:18;;;;;;;10.10;7.60;;;23.20;59.80;;;;;;5049092;28;20449;-88
2023/08/03 10:08:52;;;;;;;8.07;4.27;;;23.30;60.10;;;;;;5051431;28;20459;-89
2023/08/03 10:11:23;;;;;;;15.83;8.07;;;23.40;59.50;;;;;;5073835;28;20454;-88
2023/08/03 10:13:55;;;;;;;24.77;13.37;;;23.30;59.00;;;;;;5046487;28;20477;-87
2023/08/03 10:16:23;;;;;;;24.03;13.77;;;23.30;59.10;;;;;;5051629;28;20505;-88
2023/08/03 10:18:54;;;;;;;18.73;11.17;;;23.20;59.40;;;;;;5064013;28;20443;-89
2023/08/03 10:21:28;;;;;;;10.47;6.20;;;23.20;60.00;;;;;;5044942;28;20457;-86
2023/08/03 10:24:13;;;;;;;8.13;5.30;;;23.30;59.90;;;;;;5056561;28;20565;-87
2023/08/03 10:26:42;;;;;;;3.13;1.67;;;23.30;60.20;;;;;;5046129;28;20442;-87
2023/08/03 10:29:11;;;;;;;2.70;1.47;;;23.30;59.90;;;;;;5050858;28;20464;-88
2023/08/03 10:31:53;;;;;;;6.90;4.20;;;23.20;59.40;;;;;;5049086;28;20471;-86
2023/08/03 10:34:28;;;;;;;8.37;2.87;;;23.30;60.50;;;;;;5048233;28;20509;-85
2023/08/03 10:36:57;;;;;;;9.17;3.47;;;23.60;60.40;;;;;;5043373;28;20489;-87
2023/08/03 10:39:52;;;;;;;8.30;4.97;;;23.90;60.40;;;;;;5041457;28;20475;-85
2023/08/03 10:42:32;;;;;;;7.90;4.97;;;24.10;60.40;;;;;;5047373;28;20471;-90
2023/08/03 10:45:28;;;;;;;8.37;5.33;;;24.30;60.30;;;;;;5060191;28;20540;-85
2023/08/03 10:48:28;;;;;;;8.30;5.97;;;24.40;60.60;;;;;;5042911;28;20547;-86
2023/08/03 10:51:02;;;;;;;10.60;6.57;;;24.50;60.60;;;;;;5056059;28;20458;-85
2023/08/03 10:53:31;;;;;;;11.27;6.20;;;24.60;60.80;;;;;;5046469;28;20460;-86
2023/08/03 10:56:10;;;;;;;11.53;7.67;;;24.70;60.80;;;;;;5048944;28;20481;-85
2023/08/03 10:58:47;;;;;;;11.80;7.63;;;24.80;60.70;;;;;;5051343;28;20452;-86
2023/08/03 11:01:21;;;;;;;10.47;6.17;;;24.80;61.00;;;;;;5050525;28;20543;-84
2023/08/03 11:03:50;;;;;;;11.83;6.23;;;24.90;61.10;;;;;;5049401;28;20475;-84
2023/08/03 11:06:20;;;;;;;11.47;6.20;;;25.00;61.30;;;;;;5058184;28;20459;-84
2023/08/03 11:08:49;;;;;;;9.90;6.00;;;25.10;61.10;;;;;;5052866;28;20522;-84
2023/08/03 11:11:22;;;;;;;10.73;6.10;;;25.10;61.50;;;;;;5053693;28;20445;-84
2023/08/03 11:13:50;;;;;;;13.07;7.47;;;25.20;61.20;;;;;;5045739;28;20558;-89
2023/08/03 11:16:19;;;;;;;10.50;6.00;;;25.20;61.00;;;;;;5042786;28;20815;-84
2023/08/03 11:18:48;;;;;;;14.63;6.70;;;25.20;61.30;;;;;;5049847;28;21031;-84
2023/08/03 11:21:17;;;;;;;8.70;6.23;;;25.30;61.20;;;;;;5042835;28;20484;-84
2023/08/03 11:23:47;;;;;;;11.87;5.20;;;25.30;61.20;;;;;;5048044;28;20832;-84
2023/08/03 11:26:15;;;;;;;10.60;5.93;;;25.30;61.60;;;;;;5044757;28;20483;-84
2023/08/03 11:28:44;;;;;;;12.20;6.20;;;25.30;61.50;;;;;;5046662;28;20518;-84
2023/08/03 11:31:16;;;;;;;9.77;6.40;;;25.30;61.60;;;;;;5046649;28;20459;-84
2023/08/03 11:33:49;;;;;;;10.80;6.77;;;25.30;61.80;;;;;;5048247;28;20472;-83
2023/08/03 11:36:18;;;;;;;11.60;6.30;;;25.30;61.70;;;;;;5047466;28;20461;-83
2023/08/03 11:38:48;;;;;;;10.50;5.90;;;25.30;62.00;;;;;;5043011;28;20487;-83
2023/08/03 11:41:18;;;;;;;9.67;6.37;;;25.30;61.90;;;;;;5043760;28;20463;-84
2023/08/03 11:43:59;;;;;;;9.00;5.87;;;25.40;61.80;;;;;;5051981;28;20451;-85
2023/08/03 11:46:28;;;;;;;10.77;6.60;;;25.40;61.60;;;;;;5049184;28;20540;-83
2023/08/03 11:48:57;;;;;;;9.90;5.83;;;25.50;61.50;;;;;;5051005;28;20439;-84
2023/08/03 11:51:33;;;;;;;10.57;5.50;;;25.60;61.60;;;;;;5045171;28;20444;-84
2023/08/03 11:54:07;;;;;;;10.50;5.60;;;25.70;61.50;;;;;;5043788;28;20452;-84
2023/08/03 11:56:36;;;;;;;12.20;6.77;;;25.80;61.30;;;;;;5048288;28;20525;-84
2023/08/03 11:59:11;;;;;;;8.97;5.63;;;25.80;61.20;;;;;;5047023;28;20517;-84
2023/08/03 12:01:47;;;;;;;9.33;5.10;;;25.90;60.90;;;;;;5049393;28;20462;-84
2023/08/03 12:04:17;;;;;;;6.70;4.70;;;26.10;60.70;;;;;;5047139;28;20514;-85
2023/08/03 12:06:47;;;;;;;8.40;5.53;;;26.30;60.50;;;;;;5044664;28;20545;-81
2023/08/03 12:09:26;;;;;;;5.27;4.50;;;26.40;60.00;;;;;;5045219;28;20449;-82
2023/08/03 12:12:00;;;;;;;8.30;5.87;;;26.60;59.80;;;;;;5044147;28;20460;-82
2023/08/03 12:14:28;;;;;;;8.27;4.50;;;26.80;59.50;;;;;;5050422;28;20968;-82
2023/08/03 12:16:57;;;;;;;14.60;5.13;;;27.00;59.30;;;;;;5046280;28;20516;-81
2023/08/03 12:19:32;;;;;;;8.40;5.07;;;27.10;59.20;;;;;;5049404;28;20469;-82
2023/08/03 12:22:02;;;;;;;8.70;4.87;;;27.30;59.00;;;;;;5044897;28;20462;-82
2023/08/03 12:24:33;;;;;;;9.10;4.60;;;27.40;58.70;;;;;;5047450;28;20462;-83
2023/08/03 12:27:02;;;;;;;6.70;4.20;;;27.50;58.80;;;;;;5048853;28;20533;-83
2023/08/03 12:29:37;;;;;;;9.37;4.33;;;27.60;58.60;;;;;;5047126;28;20459;-83
2023/08/03 12:32:08;;;;;;;6.60;3.90;;;27.70;58.60;;;;;;5045225;28;20469;-83
2023/08/03 12:34:37;;;;;;;6.53;4.00;;;27.70;58.50;;;;;;5041360;28;20455;-83
2023/08/03 12:37:06;;;;;;;6.30;3.83;;;27.70;58.60;;;;;;5044687;28;20547;-83
2023/08/03 12:39:36;;;;;;;6.53;3.90;;;27.70;58.70;;;;;;5043360;28;20495;-83
2023/08/03 12:42:04;;;;;;;8.20;4.87;;;27.70;58.70;;;;;;5048265;28;20467;-82
2023/08/03 12:44:32;;;;;;;6.87;3.80;;;27.70;58.90;;;;;;5044690;28;20508;-83
2023/08/03 12:47:01;;;;;;;5.50;3.50;;;27.60;59.10;;;;;;5045381;28;20527;-84
2023/08/03 12:49:36;;;;;;;9.70;4.77;;;27.60;59.10;;;;;;5044266;28;20514;-83
2023/08/03 12:52:05;;;;;;;6.93;3.13;;;27.50;59.20;;;;;;5046458;28;20486;-81
2023/08/03 12:54:33;;;;;;;4.40;3.50;;;27.50;59.30;;;;;;5045403;28;20480;-81
2023/08/03 12:57:03;;;;;;;5.93;4.17;;;27.40;59.20;;;;;;5044299;28;20541;-81
2023/08/03 12:59:31;;;;;;;7.00;3.30;;;27.40;59.60;;;;;;5045839;28;21140;-84
2023/08/03 13:02:00;;;;;;;4.20;3.80;;;27.40;59.90;;;;;;5041356;28;20578;-82